createdAt,value
2023-04-09T00:00:40.087Z,-1.44
2023-04-09T00:03:08.470Z,-1.54
2023-04-09T00:05:40.470Z,-1.68
2023-04-09T00:08:09.006Z,-1.73
2023-04-09T00:10:38.549Z,-1.77
2023-04-09T00:13:06.796Z,-1.76
2023-04-09T00:15:35.012Z,-1.78
2023-04-09T00:18:03.302Z,-1.79
2023-04-09T00:20:31.454Z,-1.83
2023-04-09T00:22:59.659Z,-1.85
2023-04-09T00:25:28.726Z,-1.89
2023-04-09T00:27:59.038Z,-1.88
2023-04-09T00:30:29.961Z,-1.92
2023-04-09T00:32:58.342Z,-1.91
2023-04-09T00:35:26.618Z,-1.95
2023-04-09T00:37:54.990Z,-2.00
2023-04-09T00:40:23.189Z,-2.04
2023-04-09T00:42:51.461Z,-2.08
2023-04-09T00:45:21.208Z,-2.15
2023-04-09T00:47:49.579Z,-2.14
2023-04-09T00:50:18.124Z,-2.17
2023-04-09T00:52:47.104Z,-2.14
2023-04-09T00:55:15.477Z,-2.12
2023-04-09T00:57:43.763Z,-2.12
2023-04-09T01:00:13.249Z,-2.10
2023-04-09T01:02:44.919Z,-2.11
2023-04-09T01:05:14.222Z,-2.16
2023-04-09T01:07:55.880Z,-2.25
2023-04-09T01:10:34.784Z,-2.34
2023-04-09T01:13:10.740Z,-2.38
2023-04-09T01:15:45.392Z,-2.46
2023-04-09T01:18:20.304Z,-2.54
2023-04-09T01:20:56.334Z,-2.62
2023-04-09T01:23:35.372Z,-2.62
2023-04-09T01:26:08.721Z,-2.63
2023-04-09T01:28:52.495Z,-2.64
2023-04-09T01:31:26.425Z,-2.67
2023-04-09T01:33:55.099Z,-2.66
2023-04-09T01:36:25.884Z,-2.66
2023-04-09T01:38:57.289Z,-2.67
2023-04-09T01:41:27.171Z,-2.67
2023-04-09T01:43:57.449Z,-2.66
2023-04-09T01:46:27.293Z,-2.65
2023-04-09T01:48:56.936Z,-2.70
2023-04-09T01:51:26.625Z,-2.67
2023-04-09T01:53:54.902Z,-2.65
2023-04-09T01:56:23.098Z,-2.65
2023-04-09T01:58:52.750Z,-2.67
2023-04-09T02:01:32.312Z,-2.65
2023-04-09T02:04:04.387Z,-2.71
2023-04-09T02:06:39.858Z,-2.66
2023-04-09T02:09:10.619Z,-2.63
2023-04-09T02:11:41.823Z,-2.61
2023-04-09T02:14:12.699Z,-2.58
2023-04-09T02:17:02.773Z,-2.54
2023-04-09T02:19:40.368Z,-2.56
2023-04-09T02:22:08.933Z,-2.59
2023-04-09T02:24:37.536Z,-2.60
2023-04-09T02:27:06.226Z,-2.62
2023-04-09T02:29:34.467Z,-2.61
2023-04-09T02:32:04.101Z,-2.61
2023-04-09T02:34:32.302Z,-2.63
2023-04-09T02:37:00.631Z,-2.65
2023-04-09T02:39:28.874Z,-2.71
2023-04-09T02:41:57.941Z,-2.76
2023-04-09T02:44:28.571Z,-2.81
2023-04-09T02:46:58.211Z,-2.91
2023-04-09T02:49:27.917Z,-2.94
2023-04-09T02:51:56.599Z,-2.92
2023-04-09T02:54:24.794Z,-2.92
2023-04-09T02:56:53.055Z,-2.90
2023-04-09T02:59:21.332Z,-2.87
2023-04-09T03:01:49.853Z,-2.87
2023-04-09T03:04:18.239Z,-2.87
2023-04-09T03:06:47.986Z,-2.86
2023-04-09T03:09:16.214Z,-2.89
2023-04-09T03:11:44.450Z,-2.86
2023-04-09T03:14:12.647Z,-2.87
2023-04-09T03:16:41.012Z,-2.85
2023-04-09T03:19:09.376Z,-2.85
2023-04-09T03:21:38.662Z,-2.87
2023-04-09T03:24:08.888Z,-2.93
2023-04-09T03:26:38.022Z,-2.87
2023-04-09T03:29:08.514Z,-2.86
2023-04-09T03:31:36.913Z,-2.83
2023-04-09T03:34:05.149Z,-2.83
2023-04-09T03:36:34.669Z,-2.79
2023-04-09T03:39:13.106Z,-2.75
2023-04-09T03:41:44.957Z,-2.73
2023-04-09T03:44:16.720Z,-2.72
2023-04-09T03:47:03.633Z,-2.69
2023-04-09T03:49:32.012Z,-2.66
2023-04-09T03:52:08.999Z,-2.59
2023-04-09T03:54:43.576Z,-2.56
2023-04-09T03:57:17.679Z,-2.49
2023-04-09T03:59:48.522Z,-2.44
2023-04-09T04:02:20.671Z,-2.42
2023-04-09T04:04:58.354Z,-2.34
2023-04-09T04:07:31.653Z,-2.23
2023-04-09T04:10:08.911Z,-2.15
2023-04-09T04:12:37.265Z,-2.09
2023-04-09T04:15:10.655Z,-2.01
2023-04-09T04:17:45.458Z,-1.95
2023-04-09T04:20:23.050Z,-1.86
2023-04-09T04:22:58.472Z,-1.75
2023-04-09T04:25:29.462Z,-1.67
2023-04-09T04:27:58.225Z,-1.58
2023-04-09T04:30:36.402Z,-1.48
2023-04-09T04:33:08.139Z,-1.40
2023-04-09T04:36:07.634Z,-1.32
2023-04-09T04:38:42.939Z,-1.29
2023-04-09T04:41:19.698Z,-1.22
2023-04-09T04:43:55.071Z,-1.17
2023-04-09T04:46:26.176Z,-1.07
2023-04-09T04:48:54.683Z,-0.98
2023-04-09T04:51:24.187Z,-0.89
2023-04-09T04:54:03.098Z,-0.79
2023-04-09T04:56:33.122Z,-0.67
2023-04-09T04:59:11.626Z,-0.59
2023-04-09T05:01:55.037Z,-0.52
2023-04-09T05:04:23.561Z,-0.44
2023-04-09T05:06:52.062Z,-0.34
2023-04-09T05:09:23.621Z,-0.22
2023-04-09T05:12:03.770Z,-0.17
2023-04-09T05:14:32.988Z,-0.04
2023-04-09T05:17:01.242Z,0.05
2023-04-09T05:19:40.289Z,0.16
2023-04-09T05:22:08.744Z,0.28
2023-04-09T05:24:36.893Z,0.37
2023-04-09T05:27:06.651Z,0.49
2023-04-09T05:29:34.935Z,0.57
2023-04-09T05:32:04.596Z,0.66
2023-04-09T05:34:37.109Z,0.72
2023-04-09T05:37:06.647Z,0.83
2023-04-09T05:39:35.813Z,0.87
2023-04-09T05:42:06.727Z,1.00
2023-04-09T05:44:51.972Z,1.11
2023-04-09T05:47:22.081Z,1.17
2023-04-09T05:50:02.123Z,1.34
2023-04-09T05:52:31.649Z,1.43
2023-04-09T05:54:59.869Z,1.51
2023-04-09T05:57:42.311Z,1.62
2023-04-09T06:00:11.754Z,1.69
2023-04-09T06:02:46.153Z,1.87
2023-04-09T06:05:14.992Z,1.98
2023-04-09T06:07:43.185Z,2.07
2023-04-09T06:10:11.429Z,2.15
2023-04-09T06:12:42.009Z,2.30
2023-04-09T06:15:11.632Z,2.44
2023-04-09T06:17:39.790Z,2.57
2023-04-09T06:20:09.025Z,2.68
2023-04-09T06:22:37.261Z,2.78
2023-04-09T06:25:06.251Z,2.91
2023-04-09T06:27:34.533Z,3.07
2023-04-09T06:30:04.229Z,3.16
2023-04-09T06:32:37.614Z,3.29
2023-04-09T06:35:11.794Z,3.40
2023-04-09T06:37:39.940Z,3.55
2023-04-09T06:40:09.555Z,3.66
2023-04-09T06:42:37.820Z,3.76
2023-04-09T06:45:15.073Z,3.92
2023-04-09T06:47:43.322Z,4.07
2023-04-09T06:50:11.783Z,4.15
2023-04-09T06:52:39.998Z,4.25
2023-04-09T06:55:08.717Z,4.34
2023-04-09T06:57:37.862Z,4.40
2023-04-09T07:00:07.240Z,4.46
2023-04-09T07:02:37.484Z,4.61
2023-04-09T07:05:06.494Z,4.69
2023-04-09T07:07:34.684Z,4.74
2023-04-09T07:10:03.452Z,4.85
2023-04-09T07:12:33.567Z,4.97
2023-04-09T07:15:02.956Z,5.11
2023-04-09T07:17:33.014Z,5.22
2023-04-09T07:20:03.386Z,5.27
2023-04-09T07:22:31.921Z,5.38
2023-04-09T07:25:00.722Z,5.46
2023-04-09T07:27:29.912Z,5.48
2023-04-09T07:29:59.123Z,5.56
2023-04-09T07:32:29.179Z,5.62
2023-04-09T07:34:59.424Z,5.64
2023-04-09T07:37:29.112Z,5.72
2023-04-09T07:39:57.265Z,5.82
2023-04-09T07:42:25.692Z,5.93
2023-04-09T07:44:53.872Z,5.98
2023-04-09T07:47:23.961Z,6.04
2023-04-09T07:49:52.172Z,6.11
2023-04-09T07:52:20.494Z,6.23
2023-04-09T07:54:50.137Z,6.33
2023-04-09T07:57:18.295Z,6.41
2023-04-09T07:59:46.814Z,6.51
2023-04-09T08:02:15.768Z,6.65
2023-04-09T08:04:44.363Z,6.79
2023-04-09T08:07:12.736Z,6.85
2023-04-09T08:09:41.110Z,6.93
2023-04-09T08:12:11.117Z,7.02
2023-04-09T08:14:39.346Z,7.12
2023-04-09T08:17:07.591Z,7.19
2023-04-09T08:19:35.950Z,7.31
2023-04-09T08:22:04.522Z,7.36
2023-04-09T08:24:32.731Z,7.41
2023-04-09T08:27:01.897Z,7.54
2023-04-09T08:29:32.126Z,7.65
2023-04-09T08:32:00.426Z,7.78
2023-04-09T08:34:28.696Z,7.91
2023-04-09T08:36:57.144Z,7.97
2023-04-09T08:39:25.490Z,8.01
2023-04-09T08:41:53.786Z,8.03
2023-04-09T08:44:22.205Z,8.11
2023-04-09T08:46:52.650Z,8.19
2023-04-09T08:49:21.048Z,8.28
2023-04-09T08:51:50.440Z,8.35
2023-04-09T08:54:20.274Z,8.42
2023-04-09T08:56:48.729Z,8.53
2023-04-09T08:59:19.244Z,8.56
2023-04-09T09:01:52.872Z,8.66
2023-04-09T09:04:22.632Z,8.74
2023-04-09T09:06:50.888Z,8.80
2023-04-09T09:09:19.935Z,8.90
2023-04-09T09:11:50.385Z,8.99
2023-04-09T09:14:20.791Z,9.08
2023-04-09T09:17:08.340Z,9.11
2023-04-09T09:19:38.222Z,9.16
2023-04-09T09:22:08.943Z,9.16
2023-04-09T09:24:48.450Z,9.17
2023-04-09T09:27:36.789Z,9.24
2023-04-09T09:30:06.532Z,9.34
2023-04-09T09:32:35.138Z,9.43
2023-04-09T09:35:06.859Z,9.54
2023-04-09T09:37:35.536Z,9.62
2023-04-09T09:40:04.430Z,9.67
2023-04-09T09:42:33.192Z,9.76
2023-04-09T09:45:02.703Z,9.79
2023-04-09T09:47:32.184Z,9.85
2023-04-09T09:50:00.392Z,9.92
2023-04-09T09:52:30.982Z,9.92
2023-04-09T09:55:04.322Z,9.95
2023-04-09T09:57:35.161Z,9.96
2023-04-09T10:00:04.910Z,10.09
2023-04-09T10:02:49.304Z,10.09
2023-04-09T10:05:17.798Z,10.08
2023-04-09T10:07:49.320Z,10.13
2023-04-09T10:10:17.933Z,10.26
2023-04-09T10:12:47.256Z,10.33
2023-04-09T10:15:15.904Z,10.40
2023-04-09T10:17:44.209Z,10.42
2023-04-09T10:20:16.823Z,10.42
2023-04-09T10:22:49.517Z,10.48
2023-04-09T10:25:18.360Z,10.55
2023-04-09T10:27:49.241Z,10.67
2023-04-09T10:30:33.612Z,10.75
2023-04-09T10:33:12.305Z,10.80
2023-04-09T10:35:40.786Z,10.84
2023-04-09T10:38:11.305Z,10.85
2023-04-09T10:40:43.604Z,10.82
2023-04-09T10:43:12.878Z,10.95
2023-04-09T10:45:42.682Z,11.08
2023-04-09T10:48:15.130Z,11.21
2023-04-09T10:50:46.391Z,11.32
2023-04-09T10:53:26.545Z,11.46
2023-04-09T10:55:56.301Z,11.45
2023-04-09T10:58:24.485Z,11.46
2023-04-09T11:00:52.998Z,11.57
2023-04-09T11:03:23.836Z,11.74
2023-04-09T11:05:55.466Z,12.16
2023-04-09T11:08:25.154Z,12.50
2023-04-09T11:10:56.857Z,12.92
2023-04-09T11:13:25.777Z,13.21
2023-04-09T11:15:57.479Z,13.34
2023-04-09T11:18:27.511Z,13.72
2023-04-09T11:20:56.782Z,13.97
2023-04-09T11:23:27.093Z,14.02
2023-04-09T11:25:56.463Z,13.98
2023-04-09T11:28:25.727Z,13.91
2023-04-09T11:30:54.374Z,13.60
2023-04-09T11:33:22.651Z,13.36
2023-04-09T11:35:52.200Z,13.25
2023-04-09T11:38:20.402Z,12.95
2023-04-09T11:40:51.330Z,12.75
2023-04-09T11:43:21.182Z,12.73
2023-04-09T11:45:50.385Z,12.67
2023-04-09T11:48:19.353Z,12.68
2023-04-09T11:50:48.199Z,12.76
2023-04-09T11:53:22.059Z,12.85
2023-04-09T11:55:53.404Z,12.98
2023-04-09T11:58:24.646Z,13.02
2023-04-09T12:00:55.106Z,12.87
2023-04-09T12:03:30.877Z,12.80
2023-04-09T12:06:02.688Z,12.87
2023-04-09T12:08:31.327Z,12.80
2023-04-09T12:11:09.761Z,12.80
2023-04-09T12:13:40.145Z,12.74
2023-04-09T12:16:08.338Z,12.81
2023-04-09T12:18:38.505Z,12.94
2023-04-09T12:21:06.977Z,12.92
2023-04-09T12:23:35.308Z,12.86
2023-04-09T12:26:05.260Z,12.84
2023-04-09T12:28:33.532Z,12.78
2023-04-09T12:31:03.606Z,12.82
2023-04-09T12:33:32.336Z,12.89
2023-04-09T12:36:00.654Z,12.91
2023-04-09T12:38:28.897Z,13.00
2023-04-09T12:40:57.197Z,13.00
2023-04-09T12:43:26.766Z,12.99
2023-04-09T12:45:55.052Z,13.02
2023-04-09T12:48:23.749Z,12.98
2023-04-09T12:50:52.188Z,13.03
2023-04-09T12:53:20.536Z,12.99
2023-04-09T12:55:48.840Z,12.99
2023-04-09T12:58:17.045Z,13.01
2023-04-09T13:00:47.227Z,13.09
2023-04-09T13:03:16.931Z,13.15
2023-04-09T13:05:45.404Z,13.29
2023-04-09T13:08:13.564Z,13.34
2023-04-09T13:10:42.148Z,13.32
2023-04-09T13:13:12.709Z,13.26
2023-04-09T13:15:43.310Z,13.33
2023-04-09T13:18:13.800Z,13.37
2023-04-09T13:20:42.079Z,13.32
2023-04-09T13:23:10.231Z,13.22
2023-04-09T13:25:38.438Z,13.28
2023-04-09T13:28:06.672Z,13.40
2023-04-09T13:30:35.691Z,13.52
2023-04-09T13:33:04.015Z,13.68
2023-04-09T13:35:33.682Z,13.58
2023-04-09T13:38:02.067Z,13.66
2023-04-09T13:40:30.437Z,13.61
2023-04-09T13:42:58.654Z,13.51
2023-04-09T13:45:26.914Z,13.38
2023-04-09T13:47:55.290Z,13.48
2023-04-09T13:50:23.989Z,13.59
2023-04-09T13:52:53.834Z,13.65
2023-04-09T13:55:22.107Z,13.63
2023-04-09T13:57:50.334Z,13.57
2023-04-09T14:00:20.022Z,13.46
2023-04-09T14:02:48.430Z,13.42
2023-04-09T14:05:17.205Z,13.38
2023-04-09T14:07:45.954Z,13.72
2023-04-09T14:10:16.057Z,14.03
2023-04-09T14:12:44.276Z,14.44
2023-04-09T14:15:13.024Z,14.76
2023-04-09T14:17:42.021Z,14.93
2023-04-09T14:20:10.904Z,14.99
2023-04-09T14:22:39.576Z,15.12
2023-04-09T14:25:08.818Z,15.37
2023-04-09T14:27:39.132Z,15.63
2023-04-09T14:30:09.055Z,15.85
2023-04-09T14:32:37.626Z,16.05
2023-04-09T14:35:06.881Z,15.96
2023-04-09T14:37:35.684Z,15.60
2023-04-09T14:40:04.202Z,15.64
2023-04-09T14:42:32.861Z,15.63
2023-04-09T14:45:03.256Z,15.66
2023-04-09T14:47:31.969Z,15.39
2023-04-09T14:50:00.494Z,15.21
2023-04-09T14:52:30.581Z,15.11
2023-04-09T14:54:59.079Z,15.02
2023-04-09T14:57:27.584Z,15.21
2023-04-09T14:59:55.947Z,15.24
2023-04-09T15:02:26.291Z,15.33
2023-04-09T15:04:55.029Z,15.39
2023-04-09T15:07:25.143Z,15.30
2023-04-09T15:09:53.719Z,15.32
2023-04-09T15:12:22.349Z,15.32
2023-04-09T15:14:51.045Z,15.27
2023-04-09T15:17:19.512Z,15.19
2023-04-09T15:19:49.682Z,15.09
2023-04-09T15:22:18.370Z,14.97
2023-04-09T15:24:46.907Z,14.80
2023-04-09T15:27:16.286Z,14.73
2023-04-09T15:29:44.935Z,14.61
2023-04-09T15:32:13.762Z,14.52
2023-04-09T15:34:42.221Z,14.50
2023-04-09T15:37:12.243Z,14.38
2023-04-09T15:39:40.714Z,14.20
2023-04-09T15:42:10.722Z,14.06
2023-04-09T15:44:40.307Z,13.84
2023-04-09T15:47:09.149Z,13.77
2023-04-09T15:49:37.952Z,13.66
2023-04-09T15:52:06.641Z,13.55
2023-04-09T15:54:36.414Z,13.34
2023-04-09T15:57:05.190Z,13.17
2023-04-09T15:59:33.749Z,12.98
2023-04-09T16:02:02.202Z,12.75
2023-04-09T16:04:30.705Z,12.56
2023-04-09T16:06:59.240Z,12.36
2023-04-09T16:09:27.814Z,12.25
2023-04-09T16:11:57.533Z,11.98
2023-04-09T16:14:26.101Z,11.75
2023-04-09T16:16:54.639Z,11.61
2023-04-09T16:19:24.690Z,11.48
2023-04-09T16:21:53.365Z,11.32
2023-04-09T16:24:21.538Z,11.13
2023-04-09T16:26:49.929Z,11.02
2023-04-09T16:29:19.566Z,10.90
2023-04-09T16:31:47.759Z,10.77
2023-04-09T16:34:15.980Z,10.67
2023-04-09T16:36:44.741Z,10.51
2023-04-09T16:39:13.019Z,10.40
2023-04-09T16:41:41.345Z,10.28
2023-04-09T16:44:09.601Z,10.20
2023-04-09T16:46:39.238Z,10.13
2023-04-09T16:49:07.449Z,10.08
2023-04-09T16:51:35.849Z,9.94
2023-04-09T16:54:04.044Z,9.96
2023-04-09T16:56:32.280Z,9.84
2023-04-09T16:59:00.498Z,9.73
2023-04-09T17:01:29.074Z,9.58
2023-04-09T17:04:00.762Z,9.46
2023-04-09T17:06:29.460Z,9.32
2023-04-09T17:08:58.030Z,9.14
2023-04-09T17:11:26.591Z,9.06
2023-04-09T17:13:55.045Z,8.89
2023-04-09T17:16:23.325Z,8.82
2023-04-09T17:18:51.854Z,8.73
2023-04-09T17:21:21.670Z,8.65
2023-04-09T17:23:49.879Z,8.57
2023-04-09T17:26:18.134Z,8.51
2023-04-09T17:28:46.978Z,8.44
2023-04-09T17:31:16.289Z,8.37
2023-04-09T17:33:47.099Z,8.31
2023-04-09T17:36:15.466Z,8.25
2023-04-09T17:38:45.049Z,8.19
2023-04-09T17:41:13.347Z,8.18
2023-04-09T17:43:41.533Z,8.13
2023-04-09T17:46:09.867Z,8.05
2023-04-09T17:48:38.223Z,7.98
2023-04-09T17:51:07.402Z,7.90
2023-04-09T17:53:35.660Z,7.80
2023-04-09T17:56:05.686Z,7.68
2023-04-09T17:58:34.270Z,7.64
2023-04-09T18:01:02.560Z,7.54
2023-04-09T18:03:31.055Z,7.43
2023-04-09T18:06:00.712Z,7.33
2023-04-09T18:08:28.892Z,7.27
2023-04-09T18:11:11.433Z,7.18
2023-04-09T18:13:43.929Z,7.15
2023-04-09T18:16:13.221Z,7.09
2023-04-09T18:18:41.473Z,6.98
2023-04-09T18:21:09.685Z,6.89
2023-04-09T18:23:39.584Z,6.72
2023-04-09T18:26:07.900Z,6.61
2023-04-09T18:28:37.698Z,6.54
2023-04-09T18:31:07.453Z,6.47
2023-04-09T18:33:36.529Z,6.32
2023-04-09T18:36:05.245Z,5.94
2023-04-09T18:38:33.665Z,5.58
2023-04-09T18:41:02.840Z,5.34
2023-04-09T18:43:31.208Z,5.08
2023-04-09T18:45:59.970Z,4.90
2023-04-09T18:48:29.562Z,4.76
2023-04-09T18:50:57.773Z,4.72
2023-04-09T18:53:26.744Z,4.58
2023-04-09T18:55:54.890Z,4.32
2023-04-09T18:58:24.059Z,4.12
2023-04-09T19:00:52.226Z,3.94
2023-04-09T19:03:21.267Z,3.81
2023-04-09T19:05:52.654Z,3.76
2023-04-09T19:08:20.921Z,3.71
2023-04-09T19:10:49.171Z,3.65
2023-04-09T19:13:18.301Z,3.62
2023-04-09T19:15:46.625Z,3.60
2023-04-09T19:18:14.948Z,3.56
2023-04-09T19:20:43.220Z,3.47
2023-04-09T19:23:12.843Z,3.44
2023-04-09T19:25:41.114Z,3.36
2023-04-09T19:28:09.388Z,3.27
2023-04-09T19:30:37.555Z,3.09
2023-04-09T19:33:05.939Z,2.97
2023-04-09T19:35:35.885Z,2.82
2023-04-09T19:38:05.090Z,2.75
2023-04-09T19:40:34.889Z,2.68
2023-04-09T19:43:03.164Z,2.70
2023-04-09T19:45:31.421Z,2.59
2023-04-09T19:47:59.656Z,2.52
2023-04-09T19:50:27.949Z,2.47
2023-04-09T19:52:56.521Z,2.40
2023-04-09T19:55:25.054Z,2.34
2023-04-09T19:57:54.735Z,2.30
2023-04-09T20:00:22.952Z,2.27
2023-04-09T20:02:51.687Z,2.19
2023-04-09T20:05:21.059Z,2.14
2023-04-09T20:07:49.597Z,2.10
2023-04-09T20:10:18.443Z,2.08
2023-04-09T20:12:48.568Z,2.02
2023-04-09T20:15:20.073Z,1.89
2023-04-09T20:17:49.300Z,1.83
2023-04-09T20:20:20.022Z,1.74
2023-04-09T20:22:56.292Z,1.68
2023-04-09T20:25:25.761Z,1.63
2023-04-09T20:27:55.061Z,1.59
2023-04-09T20:30:24.688Z,1.52
2023-04-09T20:32:52.998Z,1.45
2023-04-09T20:35:21.738Z,1.39
2023-04-09T20:37:50.059Z,1.33
2023-04-09T20:40:18.249Z,1.19
2023-04-09T20:42:46.380Z,1.11
2023-04-09T20:45:14.648Z,1.10
2023-04-09T20:47:44.381Z,1.04
2023-04-09T20:50:13.043Z,1.00
2023-04-09T20:52:41.292Z,0.99
2023-04-09T20:55:10.082Z,0.95
2023-04-09T20:57:38.226Z,0.89
2023-04-09T21:00:07.998Z,0.82
2023-04-09T21:02:36.418Z,0.81
2023-04-09T21:05:19.587Z,0.81
2023-04-09T21:07:50.885Z,0.75
2023-04-09T21:10:19.306Z,0.56
2023-04-09T21:12:47.622Z,0.63
2023-04-09T21:15:16.011Z,0.62
2023-04-09T21:17:44.463Z,0.57
2023-04-09T21:20:15.164Z,0.48
2023-04-09T21:22:43.482Z,0.50
2023-04-09T21:25:13.793Z,0.43
2023-04-09T21:27:43.364Z,0.24
2023-04-09T21:30:12.107Z,0.19
2023-04-09T21:32:40.417Z,0.14
2023-04-09T21:35:09.159Z,-0.01
2023-04-09T21:37:39.312Z,0.08
2023-04-09T21:40:08.884Z,0.02
2023-04-09T21:42:37.401Z,0.03
2023-04-09T21:45:06.626Z,0.02
2023-04-09T21:47:34.926Z,0.00
2023-04-09T21:50:04.085Z,-0.01
2023-04-09T21:52:32.611Z,-0.01
2023-04-09T21:55:02.346Z,-0.03
2023-04-09T21:57:30.946Z,-0.03
2023-04-09T21:59:59.889Z,-0.03
2023-04-09T22:02:28.683Z,-0.07
2023-04-09T22:04:57.088Z,-0.12
2023-04-09T22:07:25.860Z,-0.19
2023-04-09T22:09:55.425Z,-0.23
2023-04-09T22:12:25.364Z,-0.31
2023-04-09T22:14:53.464Z,-0.33
2023-04-09T22:17:21.625Z,-0.37
2023-04-09T22:19:51.121Z,-0.44
2023-04-09T22:22:19.251Z,-0.44
2023-04-09T22:24:47.414Z,-0.46
2023-04-09T22:27:15.587Z,-0.42
2023-04-09T22:29:45.084Z,-0.44
2023-04-09T22:32:13.554Z,-0.44
2023-04-09T22:34:41.847Z,-0.45
2023-04-09T22:37:10.073Z,-0.48
2023-04-09T22:39:38.220Z,-0.49
2023-04-09T22:42:06.433Z,-0.48
2023-04-09T22:44:34.566Z,-0.51
2023-04-09T22:47:04.160Z,-0.65
2023-04-09T22:49:32.340Z,-0.68
2023-04-09T22:52:00.486Z,-0.69
2023-04-09T22:54:30.134Z,-0.69
2023-04-09T22:56:58.416Z,-0.71
2023-04-09T22:59:37.191Z,-0.64
2023-04-09T23:02:09.438Z,-0.66
2023-04-09T23:04:37.817Z,-0.68
2023-04-09T23:07:06.129Z,-0.75
2023-04-09T23:09:34.442Z,-0.86
2023-04-09T23:12:03.443Z,-0.92
2023-04-09T23:14:31.603Z,-0.93
2023-04-09T23:16:59.773Z,-0.95
2023-04-09T23:19:29.334Z,-1.00
2023-04-09T23:21:57.481Z,-1.00
2023-04-09T23:24:25.751Z,-1.01
2023-04-09T23:26:53.900Z,-1.03
2023-04-09T23:29:22.060Z,-0.97
2023-04-09T23:31:50.346Z,-0.98
2023-04-09T23:34:18.575Z,-0.96
2023-04-09T23:36:48.147Z,-1.00
2023-04-09T23:39:16.259Z,-1.02
2023-04-09T23:41:44.482Z,-1.09
2023-04-09T23:44:12.651Z,-1.09
2023-04-09T23:46:41.826Z,-1.14
2023-04-09T23:49:10.025Z,-1.14
2023-04-09T23:51:38.266Z,-1.17
2023-04-09T23:54:07.841Z,-1.23
2023-04-09T23:56:36.378Z,-1.26
2023-04-09T23:59:04.534Z,-1.38
